Time;durP1;ratioP1;P1;durP2;ratioP2;P2;SDS_P1;SDS_P2;PMS_P1;PMS_P2;Temp;Humidity;BMP_temperature;BMP_pressure;BME280_temperature;BME280_humidity;BME280_pressure;Samples;Min_cycle;Max_cycle;Signal;HPM_P1;HPM_P2
2022/08/10 00:01:53;;;;;;;4.38;2.63;;;;;;;18.19;69.61;102658.56;6270108;22;20684;-86
2022/08/10 00:04:20;;;;;;;4.43;2.75;;;;;;;18.16;69.60;102653.38;6271082;22;20085;-85
2022/08/10 00:06:45;;;;;;;5.43;2.58;;;;;;;18.15;70.92;102649.91;6244634;22;20013;-85
2022/08/10 00:09:10;;;;;;;3.50;2.67;;;;;;;18.12;72.31;102652.63;6269917;22;20099;-86
2022/08/10 00:11:35;;;;;;;6.87;2.50;;;;;;;18.10;70.30;102650.91;6272238;22;20240;-86
2022/08/10 00:14:01;;;;;;;6.90;2.70;;;;;;;18.06;70.24;102651.91;6271232;22;20556;-86
2022/08/10 00:16:26;;;;;;;3.45;2.72;;;;;;;18.03;70.47;102650.22;6271909;22;20245;-85
2022/08/10 00:18:51;;;;;;;4.73;2.80;;;;;;;18.01;70.57;102648.56;6269744;22;20086;-86
2022/08/10 00:21:17;;;;;;;4.63;2.73;;;;;;;17.97;72.03;102647.75;6271825;22;20243;-86
2022/08/10 00:23:42;;;;;;;5.00;2.72;;;;;;;17.94;71.77;102637.38;6271400;22;20255;-86
2022/08/10 00:26:07;;;;;;;3.47;2.57;;;;;;;17.94;72.08;102639.97;6271592;22;20437;-86
2022/08/10 00:28:33;;;;;;;4.15;2.80;;;;;;;17.91;70.97;102633.94;6271209;22;20233;-86
2022/08/10 00:30:58;;;;;;;3.97;2.78;;;;;;;17.88;70.66;102634.88;6268389;22;20035;-86
2022/08/10 00:33:24;;;;;;;6.82;2.95;;;;;;;17.88;72.80;102637.50;6270323;22;19996;-86
2022/08/10 00:35:50;;;;;;;5.10;3.03;;;;;;;17.84;72.60;102635.00;6271457;22;20000;-86
2022/08/10 00:38:15;;;;;;;6.25;3.00;;;;;;;17.84;70.99;102642.84;6269557;22;20003;-85
2022/08/10 00:40:41;;;;;;;6.60;2.92;;;;;;;17.81;71.00;102630.66;6269968;22;20007;-86
2022/08/10 00:43:07;;;;;;;4.50;3.05;;;;;;;17.80;72.80;102633.34;6271141;22;20015;-86
2022/08/10 00:45:33;;;;;;;4.45;3.08;;;;;;;17.76;73.05;102629.94;6271845;22;20027;-85
2022/08/10 00:47:58;;;;;;;5.75;2.92;;;;;;;17.70;73.78;102628.34;6271579;22;20039;-86
2022/08/10 00:50:24;;;;;;;3.55;3.00;;;;;;;17.66;72.31;102624.06;6269732;22;20000;-81
2022/08/10 00:52:49;;;;;;;5.68;3.03;;;;;;;17.65;72.32;102627.59;6271688;22;19996;-80
2022/08/10 00:55:15;;;;;;;5.05;2.95;;;;;;;17.57;72.15;102624.25;6244930;22;20014;-81
2022/08/10 00:57:40;;;;;;;3.88;2.90;;;;;;;17.60;72.27;102623.34;6244494;22;20436;-80
2022/08/10 01:00:08;;;;;;;6.30;3.30;;;;;;;17.58;74.87;102627.75;6268072;22;20004;-81
2022/08/10 01:02:33;;;;;;;5.10;2.92;;;;;;;17.54;72.87;102620.81;6270724;22;20010;-81
2022/08/10 01:05:11;;;;;;;7.43;3.20;;;;;;;17.49;74.04;102626.19;6273226;22;20333;-81
2022/08/10 01:08:14;;;;;;;6.38;3.15;;;;;;;17.50;72.52;102621.81;6272655;22;20230;-81
2022/08/10 01:11:02;;;;;;;6.75;3.17;;;;;;;17.47;73.29;102617.50;6270574;22;20006;-81
2022/08/10 01:13:54;;;;;;;5.70;3.00;;;;;;;17.45;72.75;102623.69;6245850;22;20011;-81
2022/08/10 01:16:36;;;;;;;6.07;2.88;;;;;;;17.42;74.98;102634.25;6246587;22;20464;-81
2022/08/10 01:19:44;;;;;;;6.22;3.10;;;;;;;17.37;73.55;102629.13;6272120;22;20000;-81
2022/08/10 01:22:31;;;;;;;4.60;3.00;;;;;;;17.29;73.62;102626.66;6233757;22;20012;-81
2022/08/10 01:25:12;;;;;;;4.18;2.92;;;;;;;17.26;72.74;102624.09;6272906;22;20004;-81
2022/08/10 01:27:55;;;;;;;5.90;2.72;;;;;;;17.22;73.83;102618.97;6273301;22;20012;-81
2022/08/10 01:30:22;;;;;;;5.60;3.08;;;;;;;17.17;73.88;102626.94;6273437;22;20007;-81
2022/08/10 01:33:02;;;;;;;5.43;3.22;;;;;;;17.15;73.67;102620.88;6272330;22;20000;-80
2022/08/10 01:35:34;;;;;;;4.82;2.92;;;;;;;17.10;76.12;102614.88;6244140;22;20004;-81
2022/08/10 01:38:12;;;;;;;4.68;2.90;;;;;;;17.05;73.72;102610.66;6243937;22;20334;-81
2022/08/10 01:40:43;;;;;;;5.47;2.80;;;;;;;17.02;74.31;102611.56;6273018;22;20350;-80
2022/08/10 01:43:13;;;;;;;4.07;3.10;;;;;;;17.03;75.96;102622.91;6272287;22;20064;-81
2022/08/10 01:45:45;;;;;;;6.25;3.10;;;;;;;16.98;76.23;102615.16;6274351;22;20074;-81
2022/08/10 01:48:30;;;;;;;5.13;3.15;;;;;;;16.94;75.31;102614.34;6271686;22;20014;-80
2022/08/10 01:51:06;;;;;;;3.95;3.08;;;;;;;16.94;74.77;102613.47;6272274;22;20003;-80
2022/08/10 01:53:40;;;;;;;6.22;3.00;;;;;;;16.89;75.03;102617.97;6272178;22;19999;-81
2022/08/10 01:56:07;;;;;;;4.43;3.30;;;;;;;16.89;77.17;102621.44;6273493;22;20080;-80
2022/08/10 01:58:34;;;;;;;7.18;3.33;;;;;;;16.83;75.41;102625.97;6272252;22;20087;-85
2022/08/10 02:01:01;;;;;;;6.80;3.45;;;;;;;16.81;77.40;102618.13;6271804;22;20429;-86
2022/08/10 02:03:30;;;;;;;5.20;3.40;;;;;;;16.76;76.61;102621.75;6244350;22;20031;-86
2022/08/10 02:05:57;;;;;;;4.75;3.20;;;;;;;16.74;75.58;102618.28;6246345;22;20003;-86
2022/08/10 02:08:25;;;;;;;7.55;3.45;;;;;;;16.70;76.58;102611.41;6271131;22;20003;-86
2022/08/10 02:10:52;;;;;;;6.82;3.28;;;;;;;16.69;76.53;102614.91;6273192;22;20004;-86
2022/08/10 02:13:20;;;;;;;5.10;3.13;;;;;;;16.65;78.08;102618.50;6272904;22;19999;-86
2022/08/10 02:15:48;;;;;;;7.43;3.70;;;;;;;16.63;77.93;102617.66;6272510;22;20506;-86
2022/08/10 02:18:15;;;;;;;4.35;3.30;;;;;;;16.59;78.05;102615.06;6272405;22;20000;-86
2022/08/10 02:20:48;;;;;;;5.40;3.70;;;;;;;16.56;77.17;102609.91;6272809;22;20083;-86
2022/08/10 02:23:24;;;;;;;5.90;3.70;;;;;;;16.56;78.23;102607.28;6272274;22;20010;-86
2022/08/10 02:25:51;;;;;;;5.03;3.47;;;;;;;16.49;77.74;102610.91;6272146;22;20000;-86
2022/08/10 02:28:20;;;;;;;7.10;3.67;;;;;;;16.50;77.21;102607.41;6272416;22;20042;-86
2022/08/10 02:30:47;;;;;;;6.18;3.70;;;;;;;16.48;77.12;102610.94;6246188;22;20008;-86
2022/08/10 02:33:16;;;;;;;5.30;3.65;;;;;;;16.46;77.59;102608.34;6272224;22;20050;-85
2022/08/10 02:35:42;;;;;;;6.55;3.63;;;;;;;16.44;78.32;102604.06;6272067;22;20069;-86
2022/08/10 02:38:09;;;;;;;7.38;3.83;;;;;;;16.42;79.44;102611.06;6272718;22;20079;-86
2022/08/10 02:40:42;;;;;;;7.22;4.00;;;;;;;16.37;77.85;102610.28;6271554;22;19999;-86
2022/08/10 02:43:20;;;;;;;6.75;3.95;;;;;;;16.39;79.18;102613.72;6271353;22;20018;-86
2022/08/10 02:45:50;;;;;;;5.97;4.05;;;;;;;16.33;78.02;102612.09;6246224;22;20014;-86
2022/08/10 02:48:20;;;;;;;6.90;4.20;;;;;;;16.32;79.19;102612.97;6272740;22;20003;-86
2022/08/10 02:50:54;;;;;;;7.35;4.38;;;;;;;16.30;79.72;102604.31;6246296;22;20459;-86
2022/08/10 02:53:40;;;;;;;;;;;;;;;16.33;76.68;102603.38;6271736;22;20063;-85
2022/08/10 02:56:10;;;;;;;6.05;4.20;;;;;;;16.26;77.97;102599.16;6272814;22;19981;-86
2022/08/10 02:58:43;;;;;;;8.38;4.25;;;;;;;16.24;78.29;102600.97;6272398;22;20448;-86
2022/08/10 03:01:15;;;;;;;7.25;4.28;;;;;;;16.15;78.75;102591.53;6272158;22;20027;-86
2022/08/10 03:03:47;;;;;;;10.30;4.75;;;;;;;16.18;80.21;102596.69;6271406;22;20007;-86
2022/08/10 03:06:18;;;;;;;6.75;4.32;;;;;;;16.13;79.62;102590.69;6272680;22;20082;-86
2022/08/10 03:08:45;;;;;;;9.30;4.75;;;;;;;16.11;78.95;102587.22;6243704;22;20019;-86
2022/08/10 03:11:33;;;;;;;7.95;4.50;;;;;;;16.11;79.58;102590.69;6244347;22;20306;-86
2022/08/10 03:14:00;;;;;;;8.00;4.80;;;;;;;16.07;79.74;102590.78;6271007;22;20117;-86
2022/08/10 03:16:26;;;;;;;7.70;4.85;;;;;;;16.06;81.86;102578.59;6273495;22;20007;-86
2022/08/10 03:18:53;;;;;;;10.60;4.78;;;;;;;16.00;79.89;102579.59;6272244;22;20004;-85
2022/08/10 03:21:20;;;;;;;7.80;4.68;;;;;;;15.97;79.63;102581.38;6272752;22;20017;-86
2022/08/10 03:23:47;;;;;;;8.50;4.97;;;;;;;15.95;79.74;102584.03;6270972;22;20053;-86
2022/08/10 03:26:15;;;;;;;7.07;4.72;;;;;;;15.93;79.78;102584.94;6271096;22;20314;-86
2022/08/10 03:28:41;;;;;;;9.13;4.85;;;;;;;15.93;82.04;102582.34;6272203;22;20341;-86
2022/08/10 03:31:07;;;;;;;7.97;4.57;;;;;;;15.90;82.29;102577.19;6272787;22;20008;-86
2022/08/10 03:33:36;;;;;;;7.10;4.82;;;;;;;15.89;81.66;102578.94;6270934;22;20231;-86
2022/08/10 03:36:02;;;;;;;6.95;5.05;;;;;;;15.87;81.05;102577.22;6270867;22;20429;-86
2022/08/10 03:38:28;;;;;;;7.72;4.80;;;;;;;15.83;81.49;102579.00;6241939;22;20014;-87
2022/08/10 03:40:57;;;;;;;7.50;4.65;;;;;;;15.83;82.59;102583.41;6243640;22;20037;-86
2022/08/10 03:43:24;;;;;;;8.40;5.03;;;;;;;15.79;80.75;102586.06;6270942;22;20008;-86
2022/08/10 03:45:58;;;;;;;6.97;4.60;;;;;;;15.78;81.40;102580.84;6271603;22;20011;-86
2022/08/10 03:48:26;;;;;;;8.43;5.13;;;;;;;15.75;80.77;102589.63;6271695;22;20395;-86
2022/08/10 03:50:53;;;;;;;6.47;4.68;;;;;;;15.74;80.89;102585.28;6272008;22;20003;-86
2022/08/10 03:53:19;;;;;;;7.75;5.10;;;;;;;15.67;81.02;102581.06;6243836;22;20007;-86
2022/08/10 03:55:46;;;;;;;6.53;4.75;;;;;;;15.69;82.17;102588.88;6271596;22;20003;-85
2022/08/10 03:58:12;;;;;;;10.23;5.30;;;;;;;15.68;82.17;102585.41;6271109;22;20079;-86
2022/08/10 04:00:38;;;;;;;9.15;4.97;;;;;;;15.65;81.94;102580.19;6244127;22;20031;-86
2022/08/10 04:03:04;;;;;;;7.90;4.63;;;;;;;15.66;81.79;102584.56;6270678;22;20031;-85
2022/08/10 04:05:34;;;;;;;7.90;4.75;;;;;;;15.64;83.15;102586.31;6270939;22;20000;-85
2022/08/10 04:08:00;;;;;;;9.20;5.30;;;;;;;15.60;81.88;102583.78;6271559;22;20007;-86
2022/08/10 04:10:26;;;;;;;8.70;5.15;;;;;;;15.62;82.11;102584.63;6269141;22;19996;-86
2022/08/10 04:12:52;;;;;;;6.97;4.85;;;;;;;15.59;84.13;102582.94;6244402;22;20000;-86
2022/08/10 04:15:17;;;;;;;9.15;5.22;;;;;;;15.54;82.80;102582.16;6271604;22;20467;-86
2022/08/10 04:17:43;;;;;;;9.38;5.40;;;;;;;15.57;82.66;102581.22;6244013;22;20007;-86
2022/08/10 04:20:27;;;;;;;7.80;5.03;;;;;;;15.55;83.29;102580.41;6244490;22;20061;-86
2022/08/10 04:22:56;;;;;;;9.40;5.50;;;;;;;15.56;82.58;102592.59;6271058;22;20007;-86
2022/08/10 04:25:23;;;;;;;9.00;5.28;;;;;;;15.54;84.06;102578.66;6271886;22;20023;-86
2022/08/10 04:27:49;;;;;;;7.50;5.30;;;;;;;15.59;84.61;102589.91;6271942;22;20031;-85
2022/08/10 04:30:16;;;;;;;9.40;5.40;;;;;;;15.57;84.16;102589.06;6270220;22;20433;-86
2022/08/10 04:32:43;;;;;;;9.95;5.60;;;;;;;15.58;84.72;102588.16;6245080;22;20832;-86
2022/08/10 04:35:09;;;;;;;8.38;5.20;;;;;;;15.59;84.23;102595.13;6269187;22;20008;-85
2022/08/10 04:37:36;;;;;;;8.68;5.45;;;;;;;15.58;85.43;102593.41;6271833;22;20003;-86
2022/08/10 04:40:03;;;;;;;8.10;5.43;;;;;;;15.55;83.03;102591.72;6272717;22;20082;-85
2022/08/10 04:42:29;;;;;;;9.15;5.22;;;;;;;15.58;84.82;102586.41;6274080;22;20492;-86
2022/08/10 04:44:54;;;;;;;11.48;5.47;;;;;;;15.54;85.27;102591.75;6274300;22;20003;-86
2022/08/10 04:47:20;;;;;;;8.73;5.30;;;;;;;15.56;85.45;102597.81;6273884;22;20069;-85
2022/08/10 04:49:45;;;;;;;9.45;5.18;;;;;;;15.51;85.51;102589.13;6273677;22;20163;-86
2022/08/10 04:52:10;;;;;;;8.90;5.38;;;;;;;15.51;85.81;102589.13;6274676;22;20034;-86
2022/08/10 04:54:36;;;;;;;10.87;5.60;;;;;;;15.49;85.69;102585.69;6246887;22;20145;-85
2022/08/10 04:57:01;;;;;;;9.25;5.68;;;;;;;15.48;85.67;102583.97;6275330;22;20234;-86
2022/08/10 04:59:26;;;;;;;8.68;5.50;;;;;;;15.50;85.47;102582.16;6274147;22;20006;-85
2022/08/10 05:01:52;;;;;;;7.87;5.50;;;;;;;15.51;86.52;102582.16;6274695;22;20007;-85
2022/08/10 05:04:17;;;;;;;10.70;5.80;;;;;;;15.51;85.47;102583.91;6245154;22;20801;-86
2022/08/10 05:06:42;;;;;;;9.40;5.55;;;;;;;15.52;84.42;102583.88;6247033;22;20246;-85
2022/08/10 05:09:07;;;;;;;9.77;5.60;;;;;;;15.52;85.29;102577.78;6274349;22;20003;-85
2022/08/10 05:11:33;;;;;;;10.70;6.17;;;;;;;15.57;86.35;102586.44;6274531;22;20238;-85
2022/08/10 05:13:58;;;;;;;8.07;5.43;;;;;;;15.62;86.12;102582.88;6272861;22;20258;-86
2022/08/10 05:16:23;;;;;;;9.20;6.03;;;;;;;15.63;86.14;102587.19;6247004;22;20483;-86
2022/08/10 05:18:49;;;;;;;8.67;5.90;;;;;;;15.65;86.19;102592.41;6273981;22;20343;-86
2022/08/10 05:21:14;;;;;;;9.57;6.10;;;;;;;15.66;86.10;102586.31;6272532;22;20695;-85
2022/08/10 05:23:39;;;;;;;12.40;5.70;;;;;;;15.67;85.01;102593.25;6273736;22;20011;-86
2022/08/10 05:26:04;;;;;;;9.23;6.03;;;;;;;15.68;85.84;102593.25;6274175;22;20227;-86
2022/08/10 05:28:30;;;;;;;10.25;6.00;;;;;;;15.71;84.76;102590.56;6274244;22;20280;-80
2022/08/10 05:30:55;;;;;;;10.68;6.43;;;;;;;15.73;86.18;102591.41;6246807;22;20003;-80
2022/08/10 05:33:20;;;;;;;13.13;6.47;;;;;;;15.78;87.20;102599.16;6272393;22;20050;-80
2022/08/10 05:35:46;;;;;;;11.02;6.20;;;;;;;15.82;86.73;102600.84;6274187;22;20382;-81
2022/08/10 05:38:14;;;;;;;9.90;6.63;;;;;;;15.84;86.18;102595.56;6246594;22;20105;-80
2022/08/10 05:40:42;;;;;;;10.60;7.00;;;;;;;15.86;86.59;102594.66;6246557;22;20092;-81
2022/08/10 05:43:07;;;;;;;10.05;6.53;;;;;;;15.91;86.13;102599.81;6273633;22;20022;-81
2022/08/10 05:45:32;;;;;;;10.85;6.38;;;;;;;15.94;85.32;102598.00;6273305;22;20033;-80
2022/08/10 05:47:58;;;;;;;13.23;6.90;;;;;;;15.98;85.88;102602.28;6246854;22;20006;-80
2022/08/10 05:50:27;;;;;;;12.60;7.03;;;;;;;15.99;84.44;102598.78;6273126;22;20003;-80
2022/08/10 05:52:53;;;;;;;12.52;7.05;;;;;;;16.04;84.55;102602.16;6244913;22;20063;-80
2022/08/10 05:55:19;;;;;;;12.23;7.13;;;;;;;16.10;83.85;102604.66;6271464;22;20337;-81
2022/08/10 05:57:45;;;;;;;11.75;7.05;;;;;;;16.13;84.84;102604.63;6272309;22;20008;-81
2022/08/10 06:00:13;;;;;;;14.60;7.20;;;;;;;16.17;85.15;102598.44;6270297;22;20007;-80
2022/08/10 06:02:46;;;;;;;13.75;6.90;;;;;;;16.22;84.31;102600.97;6270975;22;20382;-81
2022/08/10 06:05:37;;;;;;;12.98;7.35;;;;;;;16.30;84.35;102612.16;6271037;22;20313;-81
2022/08/10 06:08:15;;;;;;;13.10;6.95;;;;;;;16.34;84.20;102598.13;6243668;22;20011;-80
2022/08/10 06:10:43;;;;;;;11.43;7.18;;;;;;;16.43;84.86;102597.94;6271754;22;20480;-81
2022/08/10 06:15:56;;;;;;;12.55;7.28;;;;;;;16.55;84.13;102597.69;6271194;22;20039;-81
2022/08/10 06:18:22;;;;;;;11.70;7.63;;;;;;;16.68;82.92;102606.19;6271199;22;20003;-81
2022/08/10 06:20:49;;;;;;;14.75;7.65;;;;;;;16.77;82.20;102600.78;6273124;22;20007;-81
2022/08/10 06:23:14;;;;;;;16.70;8.05;;;;;;;16.86;81.89;102603.16;6272893;22;20075;-81
2022/08/10 06:25:40;;;;;;;14.32;8.07;;;;;;;16.89;82.70;102595.25;6273789;22;20027;-81
2022/08/10 06:28:10;;;;;;;12.60;8.25;;;;;;;16.98;81.37;102609.91;6273175;22;20004;-81
2022/08/10 06:30:37;;;;;;;13.90;8.43;;;;;;;17.07;81.08;102608.84;6273440;22;20070;-81
2022/08/10 06:33:04;;;;;;;13.18;8.70;;;;;;;17.13;82.01;102603.44;6271875;22;20042;-81
2022/08/10 06:35:32;;;;;;;14.15;8.00;;;;;;;17.19;83.19;102598.97;6273358;22;20000;-81
2022/08/10 06:38:01;;;;;;;13.18;7.93;;;;;;;17.24;84.63;102598.84;6273809;22;20451;-80
2022/08/10 06:40:32;;;;;;;11.38;7.68;;;;;;;17.27;82.14;102607.47;6273035;22;20030;-86
2022/08/10 06:43:00;;;;;;;15.52;8.30;;;;;;;17.30;83.01;102594.31;6273392;22;20008;-86
2022/08/10 06:45:32;;;;;;;11.88;7.68;;;;;;;17.35;81.41;102594.19;6272289;22;20006;-86
2022/08/10 06:48:26;;;;;;;13.45;7.53;;;;;;;17.45;81.33;102605.34;6245391;22;20004;-86
2022/08/10 06:50:57;;;;;;;12.93;7.78;;;;;;;17.50;79.61;102599.06;6241040;22;20008;-85
2022/08/10 06:53:29;;;;;;;13.88;7.93;;;;;;;17.61;79.31;102601.47;6273168;22;20000;-86
2022/08/10 06:56:02;;;;;;;11.25;7.95;;;;;;;17.72;81.00;102594.19;6273004;22;20004;-85
2022/08/10 06:58:35;;;;;;;13.63;7.75;;;;;;;17.82;77.67;102597.44;6273007;22;20563;-85
2022/08/10 07:01:06;;;;;;;13.00;8.18;;;;;;;17.88;81.38;102597.31;6245530;22;20004;-85
2022/08/10 07:03:35;;;;;;;14.50;7.75;;;;;;;17.97;76.94;102604.91;6272933;22;20069;-85
2022/08/10 07:06:03;;;;;;;12.43;7.70;;;;;;;18.05;78.22;102603.81;6245671;22;19999;-86
2022/08/10 07:08:32;;;;;;;12.50;7.72;;;;;;;18.13;80.02;102601.00;6245955;22;20004;-86
2022/08/10 07:10:59;;;;;;;11.20;7.70;;;;;;;18.20;79.31;102602.53;6272877;22;20495;-86
2022/08/10 07:13:25;;;;;;;12.38;7.75;;;;;;;18.25;79.15;102610.28;6245591;22;19999;-86
2022/08/10 07:15:51;;;;;;;11.25;7.68;;;;;;;18.31;74.94;102604.84;6272846;22;20378;-85
2022/08/10 07:18:18;;;;;;;13.43;7.60;;;;;;;18.44;74.68;102614.97;6272264;22;20055;-86
2022/08/10 07:20:45;;;;;;;13.50;7.60;;;;;;;18.57;73.96;102610.25;6273286;22;20029;-86
2022/08/10 07:23:12;;;;;;;13.65;7.43;;;;;;;18.78;72.39;102611.41;6246070;22;20483;-87
2022/08/10 07:25:40;;;;;;;12.23;7.78;;;;;;;18.93;71.96;102611.81;6272685;22;19999;-86
2022/08/10 07:28:07;;;;;;;12.40;7.32;;;;;;;19.07;73.39;102608.78;6245257;22;20004;-87
2022/08/10 07:30:39;;;;;;;10.77;7.60;;;;;;;19.15;73.18;102617.28;6245414;22;20047;-86
2022/08/10 07:33:06;;;;;;;14.35;7.00;;;;;;;19.25;70.00;102609.94;6244374;22;20011;-87
2022/08/10 07:35:34;;;;;;;11.73;6.90;;;;;;;19.34;71.26;102617.56;6270850;22;20425;-86
2022/08/10 07:38:02;;;;;;;12.88;6.40;;;;;;;19.42;70.73;102615.56;6272765;22;20007;-86
2022/08/10 07:40:28;;;;;;;11.07;6.57;;;;;;;19.50;71.98;102616.19;6244718;22;19999;-87
2022/08/10 07:42:58;;;;;;;9.88;6.50;;;;;;;19.55;70.98;102616.03;6272026;22;20012;-87
2022/08/10 07:45:30;;;;;;;12.73;7.10;;;;;;;19.72;70.31;102614.56;6272261;22;20015;-86
2022/08/10 07:48:04;;;;;;;10.02;6.18;;;;;;;19.87;71.29;102605.28;6273287;22;20038;-87
2022/08/10 07:50:30;;;;;;;12.75;6.18;;;;;;;20.03;69.84;102611.75;6245342;22;20003;-86
2022/08/10 07:53:00;;;;;;;10.65;6.85;;;;;;;20.26;67.85;102610.94;6246191;22;20079;-87
2022/08/10 07:55:27;;;;;;;12.25;6.07;;;;;;;20.53;68.44;102614.38;6272997;22;20500;-87
2022/08/10 07:57:55;;;;;;;10.27;5.35;;;;;;;21.04;62.72;102610.66;6272121;22;20003;-87
2022/08/10 08:00:22;;;;;;;10.82;5.22;;;;;;;21.44;63.09;102616.09;6271845;22;20000;-87
2022/08/10 08:02:51;;;;;;;8.00;4.53;;;;;;;21.77;63.05;102613.00;6273292;22;20087;-87
2022/08/10 08:05:21;;;;;;;7.50;4.97;;;;;;;22.25;61.01;102613.53;6244841;22;20004;-86
2022/08/10 08:07:47;;;;;;;10.38;5.38;;;;;;;22.83;61.68;102610.91;6245628;22;20034;-86
2022/08/10 08:10:15;;;;;;;8.07;4.78;;;;;;;23.52;59.43;102609.34;6271867;22;20071;-87
2022/08/10 08:12:42;;;;;;;6.85;4.75;;;;;;;24.18;54.02;102605.94;6272305;22;20445;-86
2022/08/10 08:15:09;;;;;;;9.63;5.28;;;;;;;24.64;54.30;102610.50;6245310;22;20022;-87
2022/08/10 08:17:38;;;;;;;9.80;4.75;;;;;;;24.99;53.35;102603.28;6272082;22;20008;-86
2022/08/10 08:20:05;;;;;;;8.43;4.82;;;;;;;25.45;53.63;102611.28;6244578;22;20459;-87
2022/08/10 08:22:30;;;;;;;7.50;4.70;;;;;;;25.74;52.99;102607.78;6272749;22;20448;-85
2022/08/10 08:24:58;;;;;;;10.45;5.10;;;;;;;26.00;48.78;102608.06;6272382;22;20000;-88
2022/08/10 08:27:24;;;;;;;6.70;4.80;;;;;;;26.18;51.03;102607.78;6272489;22;20077;-89
2022/08/10 08:29:51;;;;;;;7.32;4.93;;;;;;;26.43;50.67;102604.47;6271246;22;20447;-87
2022/08/10 08:32:21;;;;;;;7.05;4.70;;;;;;;26.54;50.16;102604.69;6272887;22;20337;-87
2022/08/10 08:34:48;;;;;;;8.05;4.75;;;;;;;26.63;53.26;102604.09;6270627;22;20019;-86
2022/08/10 08:37:16;;;;;;;10.48;5.00;;;;;;;26.67;49.11;102607.41;6271411;22;20006;-87
2022/08/10 08:39:42;;;;;;;7.50;5.00;;;;;;;26.51;47.00;102604.00;6271481;22;20555;-87
2022/08/10 08:42:25;;;;;;;6.82;5.05;;;;;;;26.32;48.57;102606.97;6243684;22;20011;-87
2022/08/10 08:45:12;;;;;;;6.45;4.65;;;;;;;26.11;48.98;102601.13;6272519;22;20018;-86
2022/08/10 08:47:52;;;;;;;7.97;4.20;;;;;;;26.19;51.05;102603.31;6272078;22;20003;-87
2022/08/10 08:50:46;;;;;;;9.25;4.55;;;;;;;26.29;48.88;102601.81;6272480;22;20361;-87
2022/08/10 08:53:33;;;;;;;9.07;4.50;;;;;;;26.28;50.28;102602.75;6272277;22;20011;-87
2022/08/10 08:56:13;;;;;;;7.40;4.72;;;;;;;26.28;47.35;102603.63;6271804;22;20231;-87
2022/08/10 08:59:03;;;;;;;8.35;5.30;;;;;;;26.34;48.52;102591.75;6271855;22;20590;-86
2022/08/10 09:01:46;;;;;;;9.10;4.82;;;;;;;26.29;49.08;102597.38;6272748;22;20383;-86
2022/08/10 09:04:56;;;;;;;12.00;4.90;;;;;;;26.41;47.43;102595.75;6272300;22;20025;-86
2022/08/10 09:07:59;;;;;;;7.30;5.35;;;;;;;26.26;47.52;102597.56;6230776;22;20018;-86
2022/08/10 09:10:57;;;;;;;10.63;4.38;;;;;;;26.27;49.24;102591.28;6269983;22;20075;-86
2022/08/10 09:13:31;;;;;;;9.40;4.90;;;;;;;26.33;46.83;102590.91;6272085;22;20760;-87
2022/08/10 09:16:04;;;;;;;7.90;4.40;;;;;;;26.39;49.39;102586.16;6272503;22;20074;-87
2022/08/10 09:18:38;;;;;;;;;;;;;;;26.55;48.13;102589.53;6272347;22;20006;-86
2022/08/10 09:21:27;;;;;;;7.80;4.55;;;;;;;26.22;47.41;102589.81;6272119;22;20328;-86
2022/08/10 09:24:04;;;;;;;9.40;4.72;;;;;;;26.13;49.19;102587.75;6222277;22;19999;-87
2022/08/10 09:26:49;;;;;;;7.53;4.82;;;;;;;26.25;47.67;102576.38;6246348;22;20368;-86
2022/08/10 09:29:43;;;;;;;9.05;5.15;;;;;;;26.25;46.84;102576.38;6271743;22;20368;-87
2022/08/10 09:32:16;;;;;;;9.90;4.60;;;;;;;26.35;46.59;102577.50;6273488;22;20014;-87
2022/08/10 09:34:56;;;;;;;5.88;4.60;;;;;;;26.51;45.17;102572.94;6245596;22;20046;-87
2022/08/10 09:37:42;;;;;;;10.25;4.63;;;;;;;26.66;46.50;102566.66;6274123;22;20004;-87
2022/08/10 09:40:26;;;;;;;7.05;4.15;;;;;;;26.79;46.24;102568.53;6272201;22;20007;-86
2022/08/10 09:43:13;;;;;;;;;;;;;;;26.94;47.97;102565.75;6273031;22;20460;-87
2022/08/10 09:45:44;;;;;;;8.88;4.80;;;;;;;27.01;44.11;102563.56;6273789;22;19903;-86
2022/08/10 09:48:37;;;;;;;7.68;4.75;;;;;;;27.06;45.26;102566.75;6273868;22;20068;-86
2022/08/10 09:51:30;;;;;;;8.27;4.47;;;;;;;27.46;46.75;102563.13;6273123;22;20007;-86
2022/08/10 09:54:14;;;;;;;7.77;4.23;;;;;;;27.59;45.67;102557.00;6273425;22;19999;-87
2022/08/10 09:56:47;;;;;;;6.60;4.45;;;;;;;27.61;45.11;102558.63;6273760;22;20541;-87
2022/08/10 09:59:18;;;;;;;6.22;4.50;;;;;;;27.66;43.13;102559.16;6274032;22;20425;-87
2022/08/10 10:01:51;;;;;;;8.43;4.80;;;;;;;27.54;41.65;102551.13;6272800;22;20007;-86
2022/08/10 10:04:32;;;;;;;9.77;4.50;;;;;;;27.47;43.35;102554.19;6271945;22;20004;-86
2022/08/10 10:07:02;;;;;;;8.35;4.90;;;;;;;27.46;41.85;102551.63;6274433;22;20031;-87
2022/08/10 10:10:05;;;;;;;7.72;4.45;;;;;;;27.54;43.68;102548.47;6271963;22;20003;-86
2022/08/10 10:12:51;;;;;;;6.47;4.80;;;;;;;27.68;42.41;102529.72;6273187;22;20514;-87
2022/08/10 10:15:45;;;;;;;8.27;4.40;;;;;;;27.86;43.92;102539.09;6273174;22;19999;-86
2022/08/10 10:18:33;;;;;;;15.23;4.80;;;;;;;27.92;43.72;102542.19;6273518;22;20006;-87
2022/08/10 10:21:07;;;;;;;6.93;4.47;;;;;;;28.06;43.65;102527.91;6246710;22;20011;-87
2022/08/10 10:24:05;;;;;;;9.18;4.68;;;;;;;28.18;43.23;102528.91;6245742;22;20473;-87
2022/08/10 10:26:43;;;;;;;6.97;4.72;;;;;;;28.13;41.43;102521.16;6273521;22;20130;-87
2022/08/10 10:29:21;;;;;;;7.85;4.60;;;;;;;28.10;42.17;102525.88;6246320;22;20004;-87
2022/08/10 10:31:57;;;;;;;8.65;5.03;;;;;;;28.19;41.84;102523.44;6272217;22;20004;-87
2022/08/10 10:34:37;;;;;;;9.75;5.10;;;;;;;28.09;41.70;102522.34;6246414;22;20006;-86
2022/08/10 10:37:05;;;;;;;7.40;4.88;;;;;;;28.15;41.72;102513.09;6272782;22;20003;-86
2022/08/10 10:39:33;;;;;;;7.95;5.60;;;;;;;28.22;39.05;102519.69;6273458;22;20010;-86
2022/08/10 10:42:10;;;;;;;7.78;4.88;;;;;;;28.08;39.93;102509.13;6272801;22;20004;-85
2022/08/10 10:44:48;;;;;;;7.05;4.40;;;;;;;28.08;41.55;102511.78;6272148;22;20008;-87
2022/08/10 10:47:50;;;;;;;6.93;4.90;;;;;;;28.03;39.78;102498.81;6245090;22;20015;-86
2022/08/10 10:50:26;;;;;;;9.68;5.30;;;;;;;27.82;39.50;102498.50;6272862;22;20074;-86
2022/08/10 10:53:17;;;;;;;6.93;5.00;;;;;;;27.97;40.57;102499.25;6273009;22;20004;-85
2022/08/10 10:55:49;;;;;;;10.27;4.95;;;;;;;27.89;40.76;102488.25;6245875;22;20004;-87
2022/08/10 10:58:23;;;;;;;11.25;5.35;;;;;;;28.01;41.39;102492.72;6272529;22;20019;-86
2022/08/10 11:00:55;;;;;;;;;;;;;;;28.16;42.29;102497.00;6272654;22;20033;-87
2022/08/10 11:03:28;;;;;;;7.57;4.93;;;;;;;28.11;38.56;102484.91;6245353;22;19915;-86
2022/08/10 11:06:24;;;;;;;6.30;4.97;;;;;;;28.12;39.32;102495.47;6272943;22;20000;-86
2022/08/10 11:08:57;;;;;;;10.65;5.55;;;;;;;28.15;35.22;102489.09;6245794;22;19999;-86
2022/08/10 11:11:30;;;;;;;11.23;5.30;;;;;;;27.99;37.59;102488.44;6271840;22;20022;-86
2022/08/10 11:14:15;;;;;;;11.00;5.00;;;;;;;28.07;37.37;102481.59;6244171;22;20060;-86
2022/08/10 11:16:47;;;;;;;8.07;4.85;;;;;;;28.09;36.18;102474.34;6273121;22;20444;-87
2022/08/10 11:19:18;;;;;;;8.95;5.13;;;;;;;28.03;36.51;102474.81;6245271;22;20341;-81
2022/08/10 11:22:17;;;;;;;8.13;5.05;;;;;;;28.03;38.09;102476.63;6245828;22;20014;-81
2022/08/10 11:24:57;;;;;;;7.28;5.22;;;;;;;28.00;37.41;102476.81;6245528;22;20007;-81
2022/08/10 11:27:47;;;;;;;8.30;5.28;;;;;;;27.90;37.80;102466.84;6273593;22;20086;-82
2022/08/10 11:30:19;;;;;;;7.53;5.40;;;;;;;27.99;38.60;102472.44;6271032;22;20280;-82
2022/08/10 11:32:56;;;;;;;7.55;4.97;;;;;;;27.97;39.29;102474.38;6272881;22;20010;-82
2022/08/10 11:35:39;;;;;;;7.68;5.15;;;;;;;27.97;39.99;102469.91;6245976;22;20091;-82
2022/08/10 11:38:20;;;;;;;7.63;5.50;;;;;;;28.08;38.86;102471.78;6271925;22;20074;-82
2022/08/10 11:41:11;;;;;;;8.35;5.10;;;;;;;28.02;38.57;102470.44;6243785;22;20329;-82
2022/08/10 11:43:42;;;;;;;6.00;5.25;;;;;;;28.07;37.87;102470.09;6272997;22;20387;-82
2022/08/10 11:46:17;;;;;;;9.32;5.18;;;;;;;28.02;37.97;102467.75;6271451;22;20556;-82
2022/08/10 11:48:51;;;;;;;9.05;5.13;;;;;;;28.11;35.87;102464.44;6273027;22;19999;-82
2022/08/10 11:51:31;;;;;;;;;;;;;;;28.17;38.26;102466.69;6245421;22;20000;-81